Time;durP1;ratioP1;P1;durP2;ratioP2;P2;SDS_P1;SDS_P2;PMS_P1;PMS_P2;Temp;Humidity;BMP_temperature;BMP_pressure;BME280_temperature;BME280_humidity;BME280_pressure;Samples;Min_cycle;Max_cycle;Signal;HPM_P1;HPM_P2
2021/12/08 00:00:17;;;;;;;23.48;12.70;;;7.00;60.60;;;;;;5086688;28;20384;-80
2021/12/08 00:02:43;;;;;;;17.40;12.63;;;7.10;61.10;;;;;;5077299;28;20029;-80
2021/12/08 00:05:11;;;;;;;18.15;12.77;;;7.10;60.50;;;;;;5078640;28;20036;-80
2021/12/08 00:07:37;;;;;;;19.00;12.85;;;7.00;60.40;;;;;;5076055;28;20463;-79
2021/12/08 00:11:02;;;;;;;18.58;12.35;;;7.00;60.50;;;;;;5075422;28;20115;-79
2021/12/08 00:13:06;;;;;;;18.75;13.32;;;6.90;60.30;;;;;;5060452;28;20055;-79
2021/12/08 00:15:40;;;;;;;17.60;11.80;;;6.90;60.70;;;;;;5067492;28;20024;-79
2021/12/08 00:18:09;;;;;;;19.88;13.20;;;6.90;61.50;;;;;;5074703;28;20040;-79
2021/12/08 00:20:37;;;;;;;19.10;12.93;;;6.70;61.00;;;;;;5067008;28;20043;-79
2021/12/08 00:23:05;;;;;;;18.88;12.38;;;6.70;61.20;;;;;;5071774;28;20033;-79
2021/12/08 00:25:31;;;;;;;21.77;14.40;;;6.40;61.50;;;;;;5078518;28;20055;-80
2021/12/08 00:27:58;;;;;;;18.98;11.95;;;6.40;61.70;;;;;;5074064;28;20040;-80
2021/12/08 00:30:24;;;;;;;19.15;13.52;;;6.40;61.90;;;;;;5085373;28;20016;-79
2021/12/08 00:32:54;;;;;;;23.42;14.70;;;6.50;61.90;;;;;;5079706;28;20035;-79
2021/12/08 00:35:20;;;;;;;;;;;6.50;61.80;;;;;;5067197;28;20035;-79
2021/12/08 00:37:46;;;;;;;18.58;12.68;;;6.60;61.70;;;;;;5072152;28;19909;-79
2021/12/08 00:40:16;;;;;;;19.05;12.70;;;6.60;61.50;;;;;;5080340;28;20113;-79
2021/12/08 00:42:42;;;;;;;19.63;13.65;;;6.60;61.40;;;;;;5076279;28;20042;-79
2021/12/08 00:45:10;;;;;;;20.45;13.50;;;6.60;61.30;;;;;;5074021;28;20044;-79
2021/12/08 00:47:36;;;;;;;18.95;12.27;;;6.60;61.00;;;;;;5076847;28;20036;-79
2021/12/08 00:50:05;;;;;;;19.33;12.77;;;6.60;61.10;;;;;;5069964;28;20115;-79
2021/12/08 00:52:31;;;;;;;22.92;14.55;;;6.60;61.40;;;;;;5070171;28;20388;-79
2021/12/08 00:54:57;;;;;;;17.08;12.75;;;6.60;61.20;;;;;;5064417;28;20029;-79
2021/12/08 00:57:23;;;;;;;19.63;12.90;;;6.60;61.10;;;;;;5063657;28;20093;-79
2021/12/08 00:59:49;;;;;;;19.48;12.93;;;6.50;61.10;;;;;;5074345;28;20046;-79
2021/12/08 01:02:14;;;;;;;18.30;12.73;;;6.60;61.10;;;;;;5094530;28;20032;-79
2021/12/08 01:04:40;;;;;;;18.25;11.70;;;6.60;61.20;;;;;;5065139;28;20055;-79
2021/12/08 01:07:06;;;;;;;18.65;11.90;;;6.60;61.10;;;;;;5085072;28;20503;-79
2021/12/08 01:09:32;;;;;;;19.65;11.93;;;6.60;61.20;;;;;;5084433;28;20032;-79
2021/12/08 01:12:01;;;;;;;15.25;10.77;;;6.60;61.30;;;;;;5075124;28;20039;-79
2021/12/08 01:14:29;;;;;;;18.00;11.82;;;6.50;60.90;;;;;;5077328;28;20040;-79
2021/12/08 01:16:55;;;;;;;18.38;10.70;;;6.50;61.00;;;;;;5056629;28;20571;-79
2021/12/08 01:19:21;;;;;;;14.88;9.57;;;6.50;61.10;;;;;;5075453;28;20111;-80
2021/12/08 01:21:47;;;;;;;16.35;10.27;;;6.50;60.90;;;;;;5080369;28;20043;-79
2021/12/08 01:24:12;;;;;;;14.93;10.68;;;6.50;60.80;;;;;;5059744;28;20480;-79
2021/12/08 01:26:38;;;;;;;14.85;10.73;;;6.50;60.80;;;;;;5074337;28;20468;-79
2021/12/08 01:29:04;;;;;;;13.55;9.95;;;6.50;60.70;;;;;;5076673;28;20017;-79
2021/12/08 01:31:30;;;;;;;14.68;9.80;;;6.40;60.50;;;;;;5079756;28;20036;-79
2021/12/08 01:33:55;;;;;;;13.77;9.82;;;6.40;60.90;;;;;;5076062;28;20369;-79
2021/12/08 01:36:21;;;;;;;15.77;10.07;;;6.40;61.20;;;;;;5082515;28;20028;-78
2021/12/08 01:38:47;;;;;;;13.88;9.85;;;6.40;61.20;;;;;;5075306;28;20033;-79
2021/12/08 01:41:14;;;;;;;13.02;9.02;;;6.40;61.00;;;;;;5059443;28;20025;-79
2021/12/08 01:45:56;;;;;;;13.02;9.00;;;6.50;60.90;;;;;;5068220;28;20349;-79
2021/12/08 01:46:30;;;;;;;15.93;9.38;;;6.50;60.90;;;;;;5067304;28;20040;-79
2021/12/08 01:48:57;;;;;;;15.07;10.15;;;6.50;61.00;;;;;;5075769;28;20052;-79
2021/12/08 01:51:25;;;;;;;14.77;9.85;;;6.40;61.00;;;;;;5082332;28;20095;-80
2021/12/08 01:53:54;;;;;;;13.80;9.27;;;6.30;61.00;;;;;;5074782;28;20067;-80
2021/12/08 01:56:22;;;;;;;16.52;9.82;;;6.20;61.00;;;;;;5066519;28;20028;-80
2021/12/08 01:58:49;;;;;;;15.57;9.45;;;6.20;61.40;;;;;;5082974;28;20108;-80
2021/12/08 02:01:18;;;;;;;16.33;9.55;;;6.30;61.30;;;;;;5074699;28;20099;-80
2021/12/08 02:03:44;;;;;;;12.30;8.65;;;6.30;61.30;;;;;;5067902;28;20116;-80
2021/12/08 02:06:12;;;;;;;14.02;8.65;;;6.30;61.30;;;;;;5068451;28;20035;-80
2021/12/08 02:08:38;;;;;;;12.98;8.77;;;6.30;61.30;;;;;;5075217;28;20029;-79
2021/12/08 02:11:06;;;;;;;13.20;8.85;;;6.30;61.20;;;;;;5074911;28;20074;-79
2021/12/08 02:13:37;;;;;;;15.15;9.77;;;6.40;61.30;;;;;;5082739;28;20071;-79
2021/12/08 02:16:07;;;;;;;13.10;8.57;;;6.10;61.30;;;;;;5074940;28;20085;-79
2021/12/08 02:18:34;;;;;;;;;;;6.20;61.40;;;;;;5075250;28;20123;-79
2021/12/08 02:21:00;;;;;;;13.45;8.55;;;6.20;61.30;;;;;;5076045;28;20342;-80
2021/12/08 02:23:27;;;;;;;11.38;8.05;;;6.30;61.30;;;;;;5074389;28;20060;-79
2021/12/08 02:25:53;;;;;;;12.90;8.32;;;6.30;61.30;;;;;;5070917;28;20431;-79
2021/12/08 02:28:18;;;;;;;13.95;8.68;;;6.30;61.00;;;;;;5087834;28;20024;-79
2021/12/08 02:30:53;;;;;;;11.35;8.45;;;6.30;60.90;;;;;;5074257;28;20032;-79
2021/12/08 02:49:49;;;;;;;9.93;7.25;;;6.20;60.90;;;;;;5072581;28;20045;-79
2021/12/08 02:52:15;;;;;;;10.88;7.60;;;6.10;61.10;;;;;;5059770;28;20024;-79
2021/12/08 02:54:45;;;;;;;11.95;7.63;;;6.10;61.10;;;;;;5073899;28;20548;-79
2021/12/08 02:57:11;;;;;;;12.25;7.82;;;6.20;61.10;;;;;;5073455;28;20025;-79
2021/12/08 02:59:39;;;;;;;9.10;6.55;;;6.10;60.80;;;;;;5078223;28;20466;-79
2021/12/08 03:02:05;;;;;;;11.32;7.32;;;6.10;61.20;;;;;;5076572;28;20017;-79
2021/12/08 03:04:31;;;;;;;10.80;7.35;;;6.10;61.20;;;;;;5073635;28;20033;-79
2021/12/08 03:06:57;;;;;;;9.75;6.60;;;6.20;61.00;;;;;;5072194;28;20073;-78
2021/12/08 03:09:23;;;;;;;17.40;8.70;;;6.00;60.90;;;;;;5072723;28;20492;-78
2021/12/08 03:11:52;;;;;;;10.20;6.65;;;5.80;60.90;;;;;;5077500;28;20032;-78
2021/12/08 03:14:18;;;;;;;9.38;6.32;;;5.80;61.40;;;;;;5081674;28;20024;-78
2021/12/08 03:16:48;;;;;;;8.90;6.50;;;5.90;61.20;;;;;;5074517;28;20044;-78
2021/12/08 03:19:15;;;;;;;9.48;6.55;;;6.00;61.30;;;;;;5072502;28;20433;-78
2021/12/08 03:21:41;;;;;;;9.05;6.55;;;6.10;61.30;;;;;;5067112;28;20372;-77
2021/12/08 03:26:50;;;;;;;8.85;6.50;;;6.10;61.20;;;;;;5073612;28;20036;-79
2021/12/08 03:29:25;;;;;;;9.00;6.10;;;6.10;61.20;;;;;;5055320;28;20020;-79
2021/12/08 03:31:53;;;;;;;11.18;7.45;;;6.20;61.20;;;;;;5070259;28;20050;-79
2021/12/08 03:34:21;;;;;;;13.30;6.70;;;6.20;61.30;;;;;;5082975;28;20344;-79
2021/12/08 03:36:47;;;;;;;10.48;6.18;;;6.00;60.40;;;;;;5079417;28;20034;-80
2021/12/08 03:39:14;;;;;;;8.32;6.05;;;6.00;61.10;;;;;;5074828;28;20020;-80
2021/12/08 03:41:39;;;;;;;8.27;5.72;;;6.00;61.40;;;;;;5068146;28;20329;-80
2021/12/08 03:44:06;;;;;;;9.55;5.95;;;6.10;61.40;;;;;;5073088;28;20546;-79
2021/12/08 03:46:39;;;;;;;7.75;5.43;;;6.10;61.20;;;;;;5080287;28;20032;-78
2021/12/08 03:49:09;;;;;;;9.45;6.13;;;6.10;61.20;;;;;;5072892;28;20031;-78
2021/12/08 03:51:34;;;;;;;8.50;5.97;;;6.10;61.00;;;;;;5072505;28;20036;-78
2021/12/08 03:54:00;;;;;;;9.38;6.15;;;6.10;61.00;;;;;;5076389;28;20484;-79
2021/12/08 03:56:26;;;;;;;8.45;5.57;;;6.20;61.10;;;;;;5082567;28;20024;-79
2021/12/08 03:58:51;;;;;;;9.27;5.60;;;6.20;61.10;;;;;;5072571;28;20469;-79
2021/12/08 04:01:17;;;;;;;9.18;5.60;;;6.20;61.20;;;;;;5087674;28;20186;-79
2021/12/08 04:03:49;;;;;;;9.50;6.13;;;6.30;61.00;;;;;;5089283;28;20443;-79
2021/12/08 04:06:28;;;;;;;8.88;6.05;;;6.20;60.90;;;;;;5054707;28;20415;-79
2021/12/08 04:08:57;;;;;;;10.82;6.43;;;6.10;60.90;;;;;;5080098;28;20051;-79
2021/12/08 04:11:24;;;;;;;10.20;7.00;;;6.00;61.60;;;;;;5072144;28;20029;-80
2021/12/08 04:14:02;;;;;;;9.85;6.72;;;5.80;61.50;;;;;;5073273;28;20060;-79
2021/12/08 04:16:34;;;;;;;9.57;6.13;;;5.70;62.30;;;;;;5066614;28;20492;-79
2021/12/08 04:19:01;;;;;;;8.88;5.25;;;5.70;62.50;;;;;;5055476;28;20424;-79
2021/12/08 04:21:28;;;;;;;8.75;5.85;;;5.80;62.80;;;;;;5069730;28;20120;-79
2021/12/08 04:23:54;;;;;;;9.35;5.90;;;5.80;62.60;;;;;;5071241;28;20036;-79
2021/12/08 04:26:25;;;;;;;8.63;5.40;;;5.80;62.90;;;;;;5077346;28;20039;-79
2021/12/08 04:28:52;;;;;;;8.00;4.68;;;5.90;62.60;;;;;;5087165;28;20028;-80
2021/12/08 04:31:24;;;;;;;8.82;5.50;;;5.90;62.40;;;;;;5071190;28;20460;-79
2021/12/08 04:33:54;;;;;;;8.20;5.28;;;5.90;62.40;;;;;;5071980;28;20473;-79
2021/12/08 04:36:21;;;;;;;9.27;5.40;;;5.90;62.40;;;;;;5070559;28;20039;-79
2021/12/08 04:38:51;;;;;;;8.82;4.80;;;6.00;62.40;;;;;;5071203;28;20048;-79
2021/12/08 04:41:27;;;;;;;6.57;5.07;;;5.80;62.30;;;;;;5063517;28;20086;-79
2021/12/08 04:44:08;;;;;;;6.60;4.80;;;6.00;62.20;;;;;;5070774;28;20036;-79
2021/12/08 04:47:19;;;;;;;11.60;6.32;;;6.00;62.20;;;;;;5072442;28;20059;-79
2021/12/08 04:52:51;;;;;;;9.02;5.85;;;5.90;62.60;;;;;;5072445;28;20029;-79
2021/12/08 05:01:14;;;;;;;7.35;4.28;;;5.90;62.50;;;;;;5072676;28;20051;-79
2021/12/08 05:09:06;;;;;;;6.50;4.50;;;6.00;62.30;;;;;;5070845;28;20065;-79
2021/12/08 05:11:37;;;;;;;7.82;5.65;;;6.00;62.50;;;;;;5072540;28;20033;-79
2021/12/08 05:14:15;;;;;;;8.20;4.82;;;6.10;62.70;;;;;;5069870;28;20447;-78
2021/12/08 05:16:44;;;;;;;11.38;6.43;;;6.10;62.70;;;;;;5071904;28;20086;-79
2021/12/08 05:19:13;;;;;;;6.68;4.13;;;5.70;62.50;;;;;;5071722;28;20063;-78
2021/12/08 05:21:44;;;;;;;5.53;3.95;;;5.70;63.30;;;;;;5064820;28;20055;-79
2021/12/08 05:24:16;;;;;;;6.22;4.00;;;5.60;63.60;;;;;;5072070;28;20028;-80
2021/12/08 05:26:53;;;;;;;7.43;4.18;;;5.70;63.50;;;;;;5077310;28;20025;-79
2021/12/08 05:29:37;;;;;;;8.35;4.10;;;5.80;63.20;;;;;;5070445;28;20558;-79
2021/12/08 05:32:05;;;;;;;5.75;3.67;;;6.00;63.10;;;;;;5079065;28;20029;-79
2021/12/08 05:34:32;;;;;;;9.23;4.13;;;6.00;62.80;;;;;;5084345;28;20546;-80
2021/12/08 05:36:58;;;;;;;7.20;3.63;;;6.00;62.90;;;;;;5071772;28;20074;-79
2021/12/08 05:39:26;;;;;;;5.78;3.53;;;6.20;62.90;;;;;;5073160;28;20037;-79
2021/12/08 05:41:58;;;;;;;5.15;3.55;;;6.20;62.50;;;;;;5070976;28;20129;-79
2021/12/08 05:44:25;;;;;;;6.65;3.95;;;6.30;62.70;;;;;;5070819;28;20469;-79
2021/12/08 05:46:54;;;;;;;5.80;3.60;;;6.20;61.90;;;;;;5083670;28;20024;-79
2021/12/08 05:49:20;;;;;;;5.45;3.42;;;6.30;62.00;;;;;;5084565;28;20037;-79
2021/12/08 05:51:48;;;;;;;5.90;3.38;;;6.40;62.00;;;;;;5072993;28;20034;-79
2021/12/08 05:54:22;;;;;;;5.35;3.28;;;6.50;61.70;;;;;;5083346;28;20056;-79
2021/12/08 05:56:50;;;;;;;5.55;3.13;;;6.50;61.40;;;;;;5057611;28;20368;-79
2021/12/08 05:59:17;;;;;;;6.35;3.42;;;6.50;61.40;;;;;;5074770;28;20028;-79
2021/12/08 06:01:52;;;;;;;6.20;3.10;;;6.60;61.30;;;;;;5077032;28;20039;-79
2021/12/08 06:04:18;;;;;;;6.70;3.50;;;6.60;60.30;;;;;;5075403;28;20021;-79
2021/12/08 06:06:47;;;;;;;3.58;2.92;;;6.50;59.70;;;;;;5075065;28;20028;-80
2021/12/08 06:09:15;;;;;;;3.03;2.40;;;6.50;60.40;;;;;;5059329;28;20427;-80
2021/12/08 06:11:41;;;;;;;4.47;3.05;;;6.50;60.60;;;;;;5074559;28;20480;-80
2021/12/08 06:14:07;;;;;;;4.32;3.25;;;6.60;60.50;;;;;;5078352;28;20051;-80
2021/12/08 06:16:36;;;;;;;4.80;2.55;;;6.60;60.60;;;;;;5075852;28;20029;-80
2021/12/08 06:19:04;;;;;;;4.65;3.22;;;6.70;60.60;;;;;;5081479;28;20181;-79
2021/12/08 06:21:31;;;;;;;5.07;2.95;;;6.70;60.40;;;;;;5067895;28;20033;-80
2021/12/08 06:23:58;;;;;;;3.92;2.78;;;6.70;59.90;;;;;;5074885;28;20043;-80
2021/12/08 06:26:26;;;;;;;4.03;2.53;;;6.40;60.30;;;;;;5082665;28;20021;-81
2021/12/08 06:28:52;;;;;;;6.75;3.25;;;6.40;60.50;;;;;;5073433;28;20032;-80
2021/12/08 06:31:22;;;;;;;4.80;2.80;;;6.40;60.80;;;;;;5069628;28;20111;-78
2021/12/08 06:33:48;;;;;;;4.25;2.47;;;6.20;61.10;;;;;;5091294;28;20032;-79
2021/12/08 06:36:26;;;;;;;4.30;2.80;;;6.20;61.20;;;;;;5075452;28;20086;-79
2021/12/08 06:38:53;;;;;;;5.07;2.60;;;6.00;61.60;;;;;;5072770;28;20048;-79
2021/12/08 06:41:41;;;;;;;4.38;2.63;;;6.10;61.50;;;;;;5072669;28;20032;-79
2021/12/08 06:44:11;;;;;;;4.25;3.13;;;6.10;61.60;;;;;;5080443;28;20187;-79
2021/12/08 06:46:38;;;;;;;;;;;6.20;61.80;;;;;;5078964;28;20108;-79
2021/12/08 06:49:08;;;;;;;3.65;2.22;;;6.30;62.10;;;;;;5081635;28;19998;-79
2021/12/08 06:51:39;;;;;;;3.63;2.53;;;6.30;61.90;;;;;;5065785;28;20492;-79
2021/12/08 06:54:10;;;;;;;3.13;2.42;;;6.20;61.70;;;;;;5083407;28;20089;-79
2021/12/08 06:56:46;;;;;;;4.32;2.65;;;6.30;61.60;;;;;;5084875;28;20086;-80
2021/12/08 06:59:21;;;;;;;4.45;2.50;;;6.30;62.30;;;;;;5080368;28;20016;-80
2021/12/08 07:02:03;;;;;;;7.93;3.17;;;6.40;61.30;;;;;;5077943;28;20518;-78
2021/12/08 07:04:41;;;;;;;4.55;2.70;;;6.20;60.90;;;;;;5062274;28;20127;-79
2021/12/08 07:07:15;;;;;;;3.95;2.67;;;6.30;61.20;;;;;;5067464;28;20086;-80
2021/12/08 07:09:55;;;;;;;4.38;2.67;;;6.30;61.20;;;;;;5071582;28;20024;-80
2021/12/08 07:12:25;;;;;;;6.95;2.85;;;6.20;61.40;;;;;;5070684;28;20365;-80
2021/12/08 07:14:59;;;;;;;3.40;2.50;;;6.30;61.60;;;;;;5070809;28;20028;-80
2021/12/08 07:17:28;;;;;;;4.30;2.80;;;6.30;61.50;;;;;;5071873;28;20083;-80
2021/12/08 07:20:14;;;;;;;4.40;2.58;;;6.40;61.40;;;;;;5082135;28;20028;-80
2021/12/08 07:22:44;;;;;;;6.25;3.05;;;6.50;61.50;;;;;;5065288;28;20024;-80
2021/12/08 07:25:12;;;;;;;3.25;2.28;;;6.30;60.90;;;;;;5072907;28;20025;-80
2021/12/08 07:27:38;;;;;;;5.75;3.10;;;6.40;61.50;;;;;;5088202;28;20445;-80
2021/12/08 07:30:15;;;;;;;5.25;3.25;;;6.40;61.00;;;;;;5070610;28;20066;-80
2021/12/08 07:32:41;;;;;;;5.40;2.88;;;6.40;61.30;;;;;;5071112;28;20108;-80
2021/12/08 07:35:18;;;;;;;4.22;2.72;;;6.20;60.90;;;;;;5073089;28;20753;-80
2021/12/08 07:37:44;;;;;;;3.42;2.47;;;6.30;61.50;;;;;;5072891;28;20523;-79
2021/12/08 07:40:24;;;;;;;10.52;2.95;;;6.30;61.30;;;;;;5072035;28;20024;-79
2021/12/08 07:42:58;;;;;;;4.30;2.25;;;6.30;61.00;;;;;;5073154;28;20082;-79
2021/12/08 07:45:38;;;;;;;2.80;2.28;;;6.40;61.00;;;;;;5066902;28;20489;-79
2021/12/08 07:48:11;;;;;;;4.28;2.40;;;6.20;60.80;;;;;;5069461;28;20415;-79
2021/12/08 07:50:43;;;;;;;4.13;2.65;;;6.20;61.60;;;;;;5066321;28;20104;-82
2021/12/08 07:53:10;;;;;;;4.88;2.17;;;6.30;61.40;;;;;;5074029;28;20021;-79
2021/12/08 07:55:41;;;;;;;3.58;2.20;;;6.40;61.40;;;;;;5070412;28;20377;-79
2021/12/08 07:58:09;;;;;;;4.57;2.30;;;6.40;60.90;;;;;;5048652;28;20476;-79
2021/12/08 08:00:37;;;;;;;3.85;2.40;;;6.60;60.70;;;;;;5063204;28;20526;-78
2021/12/08 08:03:05;;;;;;;5.40;2.67;;;6.60;60.80;;;;;;5065732;28;20111;-77
2021/12/08 08:05:32;;;;;;;7.47;2.22;;;6.70;60.50;;;;;;5067108;28;20036;-78
2021/12/08 08:08:02;;;;;;;3.28;2.10;;;6.60;60.00;;;;;;5076422;28;20423;-79
2021/12/08 08:10:31;;;;;;;3.17;2.42;;;6.40;60.50;;;;;;5070120;28;20028;-80
2021/12/08 08:13:01;;;;;;;3.97;2.53;;;6.30;60.20;;;;;;5071350;28;20069;-79
2021/12/08 08:15:30;;;;;;;3.83;2.08;;;6.40;60.90;;;;;;5074745;28;20028;-81
2021/12/08 08:17:57;;;;;;;3.38;2.10;;;6.40;60.80;;;;;;5046480;28;20040;-80
2021/12/08 08:20:26;;;;;;;6.15;2.90;;;6.50;60.90;;;;;;5064905;28;21346;-79
2021/12/08 08:22:52;;;;;;;3.38;2.40;;;6.50;60.30;;;;;;5068575;28;20079;-78
2021/12/08 08:25:23;;;;;;;4.35;2.33;;;6.40;61.10;;;;;;5070841;28;20038;-78
2021/12/08 08:27:50;;;;;;;3.75;2.40;;;6.40;60.80;;;;;;5070475;28;20029;-80
2021/12/08 08:30:21;;;;;;;3.38;2.22;;;6.50;61.10;;;;;;5070947;28;20064;-80
2021/12/08 08:32:49;;;;;;;3.90;2.55;;;6.50;61.00;;;;;;5071123;28;20074;-80
2021/12/08 08:35:29;;;;;;;2.65;2.03;;;6.60;61.10;;;;;;5052510;28;20021;-80
2021/12/08 08:37:57;;;;;;;6.00;2.50;;;6.70;61.20;;;;;;5070309;28;20058;-80
2021/12/08 08:40:31;;;;;;;2.72;2.20;;;6.90;61.00;;;;;;5061915;28;20020;-80
2021/12/08 08:42:59;;;;;;;2.85;2.10;;;6.90;61.10;;;;;;5070236;28;20025;-80
2021/12/08 08:45:31;;;;;;;3.25;2.47;;;7.00;61.20;;;;;;5069921;28;20041;-80
2021/12/08 08:48:09;;;;;;;2.95;2.13;;;6.60;61.70;;;;;;5071058;28;20373;-80
2021/12/08 08:50:43;;;;;;;3.88;2.30;;;6.70;62.00;;;;;;5049248;28;20389;-80
2021/12/08 08:53:09;;;;;;;3.53;2.35;;;6.70;61.90;;;;;;5069511;28;20025;-80
2021/12/08 08:56:00;;;;;;;3.47;2.33;;;6.90;61.80;;;;;;5069571;28;20047;-80
2021/12/08 08:58:26;;;;;;;;;;;7.00;62.10;;;;;;5070114;28;20032;-87
2021/12/08 09:01:02;;;;;;;3.50;1.92;;;7.10;61.70;;;;;;5070317;28;19908;-83
2021/12/08 09:03:32;;;;;;;3.60;2.30;;;7.20;61.50;;;;;;5070063;28;20040;-80
2021/12/08 09:06:06;;;;;;;3.70;2.40;;;7.30;61.60;;;;;;5071555;28;20056;-79
2021/12/08 09:08:33;;;;;;;3.65;2.50;;;7.30;61.70;;;;;;5070054;28;20602;-79
2021/12/08 09:11:10;;;;;;;2.88;2.33;;;7.30;61.70;;;;;;5071218;28;20477;-80
2021/12/08 09:13:42;;;;;;;3.88;2.63;;;7.40;61.50;;;;;;5070559;28;20028;-80
2021/12/08 09:16:15;;;;;;;4.72;3.05;;;7.40;61.50;;;;;;5068500;28;20036;-80
2021/12/08 09:19:02;;;;;;;4.28;2.58;;;7.50;61.80;;;;;;5070315;28;20020;-80
2021/12/08 09:21:47;;;;;;;4.28;2.70;;;7.60;61.60;;;;;;5071299;28;20033;-80
2021/12/08 09:24:32;;;;;;;6.72;3.45;;;7.60;61.30;;;;;;5071237;28;20107;-80
2021/12/08 09:26:58;;;;;;;4.97;2.88;;;7.60;61.50;;;;;;5068059;28;20016;-79
2021/12/08 09:29:45;;;;;;;3.95;2.38;;;7.50;62.00;;;;;;5072011;28;20020;-80
2021/12/08 09:32:42;;;;;;;3.67;2.40;;;7.40;62.80;;;;;;5074854;28;20338;-80
2021/12/08 09:35:40;;;;;;;3.83;2.95;;;7.40;63.00;;;;;;5066985;28;20044;-79
2021/12/08 09:38:20;;;;;;;4.32;2.38;;;7.30;63.30;;;;;;5050748;28;20039;-78
2021/12/08 09:40:58;;;;;;;8.13;2.78;;;7.50;63.70;;;;;;5074216;28;20046;-76
2021/12/08 09:43:50;;;;;;;4.38;3.05;;;7.30;64.00;;;;;;5069912;28;20031;-77
2021/12/08 09:46:24;;;;;;;4.82;2.60;;;7.40;63.80;;;;;;5065418;28;20419;-77
2021/12/08 09:48:50;;;;;;;4.18;2.78;;;7.30;63.80;;;;;;5073256;28;20037;-78
2021/12/08 09:51:19;;;;;;;4.47;2.50;;;7.40;64.10;;;;;;5060743;28;20044;-79
2021/12/08 09:53:45;;;;;;;6.38;2.80;;;7.50;64.20;;;;;;5077407;28;20103;-78
2021/12/08 09:56:11;;;;;;;3.20;2.53;;;7.60;63.90;;;;;;5079760;28;20130;-77
2021/12/08 09:58:39;;;;;;;4.65;2.83;;;7.70;63.90;;;;;;5053571;28;20024;-77
2021/12/08 10:01:09;;;;;;;5.10;2.97;;;7.80;63.50;;;;;;5058854;28;20391;-77
2021/12/08 10:03:36;;;;;;;4.47;2.90;;;7.70;63.60;;;;;;5053961;28;20033;-77
2021/12/08 10:06:02;;;;;;;5.00;2.85;;;7.70;63.50;;;;;;5077308;28;20082;-77
2021/12/08 10:08:29;;;;;;;4.88;2.88;;;7.80;64.10;;;;;;5070078;28;20036;-77
2021/12/08 10:10:55;;;;;;;3.35;2.63;;;7.90;63.70;;;;;;5073118;28;20086;-77
2021/12/08 10:13:21;;;;;;;4.88;2.70;;;7.80;64.00;;;;;;5082960;28;20024;-78
2021/12/08 10:15:48;;;;;;;4.97;3.08;;;7.90;64.00;;;;;;5081015;28;20028;-77
2021/12/08 10:18:15;;;;;;;8.02;4.43;;;7.80;64.40;;;;;;5088534;28;20028;-77
2021/12/08 10:20:53;;;;;;;4.47;3.00;;;7.70;64.80;;;;;;5073634;28;20049;-79
2021/12/08 10:23:32;;;;;;;5.55;3.33;;;7.60;65.30;;;;;;5095269;28;20039;-79
2021/12/08 10:26:08;;;;;;;5.63;3.75;;;7.60;64.90;;;;;;5069787;28;20032;-79
2021/12/08 10:28:38;;;;;;;5.60;3.33;;;7.50;65.10;;;;;;5053482;28;20029;-79
2021/12/08 10:31:14;;;;;;;5.88;3.47;;;7.40;65.30;;;;;;5069804;28;20036;-79
2021/12/08 10:34:06;;;;;;;6.88;3.63;;;7.30;65.70;;;;;;5073107;28;20055;-79
2021/12/08 10:36:55;;;;;;;6.85;3.47;;;7.20;66.10;;;;;;5068870;28;20485;-83
2021/12/08 10:39:41;;;;;;;3.67;2.95;;;7.20;65.90;;;;;;5074677;28;20020;-79
2021/12/08 10:42:23;;;;;;;5.70;3.85;;;7.20;66.10;;;;;;5068763;28;20025;-79
2021/12/08 10:44:51;;;;;;;6.80;3.55;;;7.10;65.90;;;;;;5070609;28;20045;-79
2021/12/08 10:47:44;;;;;;;4.72;2.88;;;7.10;65.60;;;;;;5056777;28;20330;-79
2021/12/08 10:56:15;;;;;;;6.07;2.42;;;7.30;66.10;;;;;;5070266;28;20487;-77
2021/12/08 10:58:47;;;;;;;5.05;3.42;;;7.30;71.20;;;;;;5079485;28;20028;-79
2021/12/08 11:01:18;;;;;;;3.80;2.63;;;7.20;67.40;;;;;;5065230;28;20024;-83
2021/12/08 11:03:46;;;;;;;3.30;2.28;;;7.30;67.30;;;;;;5052809;28;20040;-78
2021/12/08 11:06:15;;;;;;;4.22;2.72;;;7.50;67.80;;;;;;5069610;28;20028;-78
2021/12/08 11:08:46;;;;;;;3.22;2.38;;;7.40;68.50;;;;;;5084420;28;20032;-81
2021/12/08 11:11:22;;;;;;;4.25;3.20;;;7.40;68.30;;;;;;5072537;28;20024;-81
2021/12/08 11:13:51;;;;;;;4.63;3.08;;;7.50;69.10;;;;;;5073951;28;20036;-78
2021/12/08 11:16:26;;;;;;;2.92;2.15;;;7.40;69.80;;;;;;5074045;28;20039;-79
2021/12/08 11:19:13;;;;;;;5.22;3.25;;;7.50;69.40;;;;;;5073827;28;20032;-78
2021/12/08 11:21:46;;;;;;;3.25;2.30;;;7.30;71.30;;;;;;5069249;28;20047;-78
2021/12/08 11:24:31;;;;;;;4.00;2.30;;;7.10;71.30;;;;;;5074417;28;20032;-78
2021/12/08 11:26:57;;;;;;;4.78;2.80;;;7.20;71.40;;;;;;5073977;28;20024;-78
2021/12/08 11:29:26;;;;;;;3.58;2.60;;;7.10;72.90;;;;;;5073970;28;20104;-78
2021/12/08 11:31:55;;;;;;;5.05;3.45;;;7.10;72.70;;;;;;5073890;28;20021;-78
2021/12/08 11:34:22;;;;;;;5.45;3.38;;;6.60;75.70;;;;;;5073551;28;20346;-78
2021/12/08 11:36:54;;;;;;;4.43;2.80;;;6.50;77.20;;;;;;5055796;28;20373;-78
2021/12/08 11:39:28;;;;;;;4.15;2.75;;;6.60;76.20;;;;;;5077374;28;20079;-78
2021/12/08 11:42:06;;;;;;;4.05;2.78;;;6.80;76.40;;;;;;5055803;28;20036;-78
2021/12/08 11:44:32;;;;;;;4.88;2.45;;;6.90;75.60;;;;;;5065938;28;20052;-78
2021/12/08 11:47:08;;;;;;;4.20;2.92;;;7.00;76.90;;;;;;5072977;28;20073;-78
2021/12/08 11:49:41;;;;;;;6.55;4.22;;;7.00;76.80;;;;;;5066542;28;20549;-78
2021/12/08 11:52:19;;;;;;;5.07;4.13;;;7.00;77.60;;;;;;5073145;28;20070;-78
2021/12/08 11:55:02;;;;;;;4.18;3.15;;;7.00;78.10;;;;;;5067551;28;20357;-78
2021/12/08 11:57:40;;;;;;;5.53;3.40;;;7.10;77.90;;;;;;5073131;28;20025;-78
2021/12/08 12:00:19;;;;;;;5.32;3.42;;;7.10;77.30;;;;;;5073157;28;20461;-77
2021/12/08 12:02:58;;;;;;;5.27;3.23;;;6.90;78.80;;;;;;5073143;28;20598;-78
2021/12/08 12:05:43;;;;;;;5.95;4.40;;;7.00;78.60;;;;;;5073040;28;20361;-78
2021/12/08 12:08:12;;;;;;;5.32;4.00;;;7.00;79.80;;;;;;5079665;28;20028;-77
2021/12/08 12:10:41;;;;;;;4.82;2.90;;;6.60;81.90;;;;;;5055161;28;20028;-78
2021/12/08 12:13:11;;;;;;;4.50;3.53;;;6.70;81.30;;;;;;5073124;28;20416;-78
2021/12/08 12:15:48;;;;;;;5.10;3.55;;;6.80;81.50;;;;;;5055290;28;20123;-77
2021/12/08 12:18:16;;;;;;;5.93;3.45;;;6.60;83.20;;;;;;5072919;28;20033;-78
2021/12/08 12:20:49;;;;;;;9.15;5.50;;;6.70;83.40;;;;;;5073198;28;20047;-78
2021/12/08 12:23:44;;;;;;;3.50;3.20;;;6.70;83.40;;;;;;5055866;28;20583;-78
2021/12/08 12:26:29;;;;;;;5.47;3.63;;;6.70;82.40;;;;;;5069465;28;20040;-78
2021/12/08 12:29:11;;;;;;;5.93;3.92;;;6.90;81.50;;;;;;5067250;28;20021;-78
2021/12/08 12:31:51;;;;;;;4.95;3.95;;;6.80;82.30;;;;;;5072604;28;20025;-78
2021/12/08 12:34:24;;;;;;;3.97;3.30;;;6.70;83.10;;;;;;5072699;28;20104;-77
2021/12/08 12:36:51;;;;;;;7.20;3.97;;;6.80;82.20;;;;;;5072742;28;20025;-78
2021/12/08 12:39:20;;;;;;;6.88;4.25;;;6.90;82.00;;;;;;5073610;28;20102;-78
2021/12/08 12:42:12;;;;;;;3.73;2.93;;;7.00;81.80;;;;;;5072933;28;20051;-78
2021/12/08 12:44:41;;;;;;;8.82;3.92;;;7.20;81.60;;;;;;5072317;28;20052;-78
2021/12/08 12:47:12;;;;;;;5.57;3.90;;;7.10;82.20;;;;;;5073034;28;20522;-78
2021/12/08 12:50:03;;;;;;;7.38;5.13;;;7.10;82.70;;;;;;5072545;28;20052;-77
2021/12/08 12:52:43;;;;;;;4.68;4.03;;;6.80;83.70;;;;;;5057712;28;20047;-78
2021/12/08 12:55:13;;;;;;;8.07;5.13;;;6.90;83.80;;;;;;5072526;28;20028;-78
2021/12/08 12:58:03;;;;;;;6.15;4.55;;;6.90;84.00;;;;;;5072312;28;20150;-78
2021/12/08 13:00:32;;;;;;;5.15;3.92;;;6.90;84.00;;;;;;5072437;28;20050;-78
2021/12/08 13:02:58;;;;;;;6.72;5.53;;;6.90;83.60;;;;;;5072644;28;20035;-78
2021/12/08 13:05:52;;;;;;;5.75;4.30;;;6.80;84.70;;;;;;5071670;28;20099;-78
2021/12/08 13:08:38;;;;;;;5.70;4.53;;;6.70;85.70;;;;;;5071497;28;20016;-78
2021/12/08 13:11:33;;;;;;;4.90;3.92;;;6.60;86.00;;;;;;5066020;28;20063;-78
2021/12/08 13:13:59;;;;;;;8.00;6.47;;;6.60;85.90;;;;;;5072401;28;20081;-78
2021/12/08 13:16:28;;;;;;;8.35;6.72;;;6.60;86.40;;;;;;5072380;28;20490;-78
2021/12/08 13:19:00;;;;;;;5.90;4.32;;;6.50;86.50;;;;;;5064388;28;20032;-78
2021/12/08 13:21:46;;;;;;;4.00;3.25;;;6.50;86.30;;;;;;5072649;28;20349;-78
2021/12/08 13:24:44;;;;;;;7.15;5.05;;;6.60;86.00;;;;;;5051431;28;20032;-77
2021/12/08 13:27:11;;;;;;;4.72;4.05;;;6.50;87.10;;;;;;5038178;28;20060;-78
2021/12/08 13:29:48;;;;;;;4.97;3.90;;;6.60;86.50;;;;;;5071939;28;20053;-78
2021/12/08 13:32:16;;;;;;;7.03;5.85;;;6.60;86.60;;;;;;5054037;28;20035;-78
2021/12/08 13:35:00;;;;;;;5.45;4.47;;;6.30;88.00;;;;;;5053659;28;20021;-78
2021/12/08 13:37:29;;;;;;;6.82;5.72;;;6.40;87.70;;;;;;5058775;28;20123;-78
2021/12/08 13:40:06;;;;;;;8.55;6.47;;;6.30;88.50;;;;;;5072551;28;20469;-78
2021/12/08 13:42:45;;;;;;;5.65;3.97;;;6.10;89.20;;;;;;5072346;28;20037;-78
2021/12/08 13:45:13;;;;;;;4.68;3.50;;;6.20;89.40;;;;;;5071930;28;20036;-78
2021/12/08 13:47:44;;;;;;;4.13;3.42;;;6.40;88.40;;;;;;5072388;28;20028;-78
2021/12/08 13:50:14;;;;;;;6.00;4.47;;;6.50;88.10;;;;;;5072169;28;20029;-78
2021/12/08 13:53:06;;;;;;;6.53;5.22;;;6.40;88.60;;;;;;5071799;28;20093;-78
2021/12/08 13:55:34;;;;;;;3.83;3.38;;;6.40;89.00;;;;;;5072031;28;20464;-78
2021/12/08 13:58:04;;;;;;;4.55;3.30;;;6.40;88.40;;;;;;5071408;28;20037;-79